sensor_id;sensor_type;location;lat;lon;timestamp;pressure;altitude;pressure_sealevel;temperature;humidity
57606;BME280;43430;48.204;11.556;2023-07-16T00:01:57;95758.06;;;20.32;100.00
57606;BME280;43430;48.204;11.556;2023-07-16T00:04:22;95761.44;;;20.00;100.00
57606;BME280;43430;48.204;11.556;2023-07-16T00:06:48;95760.38;;;19.96;100.00
57606;BME280;43430;48.204;11.556;2023-07-16T00:09:13;95764.91;;;20.00;100.00
57606;BME280;43430;48.204;11.556;2023-07-16T00:11:38;95773.28;;;19.94;100.00
57606;BME280;43430;48.204;11.556;2023-07-16T00:14:04;95783.63;;;20.00;100.00
57606;BME280;43430;48.204;11.556;2023-07-16T00:16:30;95786.81;;;20.02;100.00
57606;BME280;43430;48.204;11.556;2023-07-16T00:18:55;95792.78;;;19.94;100.00
57606;BME280;43430;48.204;11.556;2023-07-16T00:21:21;95778.06;;;19.97;100.00
57606;BME280;43430;48.204;11.556;2023-07-16T00:23:46;95775.97;;;20.12;100.00
57606;BME280;43430;48.204;11.556;2023-07-16T00:26:13;95777.59;;;20.13;100.00
57606;BME280;43430;48.204;11.556;2023-07-16T00:28:38;95783.16;;;20.17;100.00
57606;BME280;43430;48.204;11.556;2023-07-16T00:31:03;95785.31;;;20.15;100.00
57606;BME280;43430;48.204;11.556;2023-07-16T00:33:29;95787.94;;;20.20;100.00
57606;BME280;43430;48.204;11.556;2023-07-16T00:35:54;95776.06;;;20.26;100.00
57606;BME280;43430;48.204;11.556;2023-07-16T00:38:19;95797.56;;;20.21;100.00
57606;BME280;43430;48.204;11.556;2023-07-16T00:40:48;95808.28;;;20.21;100.00
57606;BME280;43430;48.204;11.556;2023-07-16T00:43:14;95821.31;;;20.28;100.00
57606;BME280;43430;48.204;11.556;2023-07-16T00:45:40;95844.66;;;20.22;100.00
57606;BME280;43430;48.204;11.556;2023-07-16T00:48:06;95858.84;;;20.23;100.00
57606;BME280;43430;48.204;11.556;2023-07-16T00:50:34;95877.13;;;20.15;100.00
57606;BME280;43430;48.204;11.556;2023-07-16T00:53:05;95916.69;;;20.24;100.00
57606;BME280;43430;48.204;11.556;2023-07-16T00:55:30;95952.31;;;20.19;100.00
57606;BME280;43430;48.204;11.556;2023-07-16T00:58:00;95980.72;;;20.20;100.00
57606;BME280;43430;48.204;11.556;2023-07-16T01:00:28;95982.53;;;20.25;100.00
57606;BME280;43430;48.204;11.556;2023-07-16T01:02:53;95970.78;;;20.21;100.00
57606;BME280;43430;48.204;11.556;2023-07-16T01:05:18;96004.38;;;20.08;100.00
57606;BME280;43430;48.204;11.556;2023-07-16T01:07:55;96014.13;;;19.94;100.00
57606;BME280;43430;48.204;11.556;2023-07-16T01:10:22;96030.75;;;19.90;100.00
57606;BME280;43430;48.204;11.556;2023-07-16T01:12:49;96023.00;;;19.89;100.00
57606;BME280;43430;48.204;11.556;2023-07-16T01:15:15;96016.97;;;19.68;100.00
57606;BME280;43430;48.204;11.556;2023-07-16T01:17:41;96026.09;;;19.67;100.00
57606;BME280;43430;48.204;11.556;2023-07-16T01:20:07;96041.63;;;19.65;100.00
57606;BME280;43430;48.204;11.556;2023-07-16T01:31:11;96051.06;;;19.91;100.00
57606;BME280;43430;48.204;11.556;2023-07-16T01:33:38;96065.31;;;19.82;100.00
57606;BME280;43430;48.204;11.556;2023-07-16T01:36:07;96069.06;;;19.86;100.00
57606;BME280;43430;48.204;11.556;2023-07-16T01:38:34;96058.28;;;19.91;100.00
57606;BME280;43430;48.204;11.556;2023-07-16T01:41:00;96068.22;;;19.85;100.00
57606;BME280;43430;48.204;11.556;2023-07-16T01:43:25;96069.66;;;19.73;100.00
57606;BME280;43430;48.204;11.556;2023-07-16T01:45:50;96069.91;;;19.76;100.00
57606;BME280;43430;48.204;11.556;2023-07-16T01:48:27;96076.78;;;19.87;100.00
57606;BME280;43430;48.204;11.556;2023-07-16T01:50:54;96079.56;;;19.72;100.00
57606;BME280;43430;48.204;11.556;2023-07-16T01:53:20;96086.47;;;19.78;100.00
57606;BME280;43430;48.204;11.556;2023-07-16T01:55:45;96087.53;;;19.82;100.00
57606;BME280;43430;48.204;11.556;2023-07-16T01:58:11;96084.88;;;19.77;100.00
57606;BME280;43430;48.204;11.556;2023-07-16T02:00:37;96087.84;;;19.76;100.00
57606;BME280;43430;48.204;11.556;2023-07-16T02:03:02;96080.63;;;19.71;100.00
57606;BME280;43430;48.204;11.556;2023-07-16T02:05:28;96087.25;;;19.84;100.00
57606;BME280;43430;48.204;11.556;2023-07-16T02:07:53;96085.69;;;19.78;100.00
57606;BME280;43430;48.204;11.556;2023-07-16T02:10:19;96084.09;;;19.77;100.00
57606;BME280;43430;48.204;11.556;2023-07-16T02:12:44;96083.03;;;19.73;100.00
57606;BME280;43430;48.204;11.556;2023-07-16T02:15:09;96088.53;;;19.91;100.00
57606;BME280;43430;48.204;11.556;2023-07-16T02:17:35;96095.44;;;20.03;100.00
57606;BME280;43430;48.204;11.556;2023-07-16T02:20:01;96092.75;;;20.03;100.00
57606;BME280;43430;48.204;11.556;2023-07-16T02:22:26;96101.84;;;20.02;100.00
57606;BME280;43430;48.204;11.556;2023-07-16T02:24:51;96096.53;;;19.97;100.00
57606;BME280;43430;48.204;11.556;2023-07-16T02:27:17;96101.34;;;19.95;100.00
57606;BME280;43430;48.204;11.556;2023-07-16T02:29:42;96106.16;;;19.98;100.00
57606;BME280;43430;48.204;11.556;2023-07-16T02:32:07;96089.50;;;20.06;100.00
57606;BME280;43430;48.204;11.556;2023-07-16T02:34:33;96093.19;;;20.15;100.00
57606;BME280;43430;48.204;11.556;2023-07-16T02:36:58;96109.84;;;20.07;100.00
57606;BME280;43430;48.204;11.556;2023-07-16T02:39:24;96121.13;;;20.04;100.00
57606;BME280;43430;48.204;11.556;2023-07-16T02:41:49;96121.13;;;20.04;100.00
57606;BME280;43430;48.204;11.556;2023-07-16T02:44:14;96124.28;;;20.06;100.00
57606;BME280;43430;48.204;11.556;2023-07-16T02:46:40;96124.88;;;20.03;100.00
57606;BME280;43430;48.204;11.556;2023-07-16T02:49:06;96123.81;;;19.99;100.00
57606;BME280;43430;48.204;11.556;2023-07-16T02:51:32;96130.72;;;20.10;100.00
57606;BME280;43430;48.204;11.556;2023-07-16T02:53:57;96134.50;;;20.04;100.00
57606;BME280;43430;48.204;11.556;2023-07-16T02:56:23;96132.81;;;20.13;100.00
57606;BME280;43430;48.204;11.556;2023-07-16T02:58:48;96136.56;;;20.17;100.00
57606;BME280;43430;48.204;11.556;2023-07-16T03:01:14;96129.16;;;19.99;100.00
57606;BME280;43430;48.204;11.556;2023-07-16T03:03:39;96123.53;;;20.00;100.00
57606;BME280;43430;48.204;11.556;2023-07-16T03:06:04;96124.13;;;19.92;100.00
57606;BME280;43430;48.204;11.556;2023-07-16T03:08:30;96135.81;;;20.06;100.00
57606;BME280;43430;48.204;11.556;2023-07-16T03:10:57;96140.81;;;20.18;100.00
57606;BME280;43430;48.204;11.556;2023-07-16T03:13:22;96144.53;;;20.22;100.00
57606;BME280;43430;48.204;11.556;2023-07-16T03:15:48;96145.69;;;20.11;100.00
57606;BME280;43430;48.204;11.556;2023-07-16T03:18:13;96143.78;;;20.17;100.00
57606;BME280;43430;48.204;11.556;2023-07-16T03:20:38;96147.97;;;19.88;100.00
57606;BME280;43430;48.204;11.556;2023-07-16T03:23:04;96164.59;;;19.80;100.00
57606;BME280;43430;48.204;11.556;2023-07-16T03:25:29;96157.66;;;19.79;100.00
57606;BME280;43430;48.204;11.556;2023-07-16T03:27:55;96163.75;;;19.85;100.00
57606;BME280;43430;48.204;11.556;2023-07-16T03:30:20;96158.69;;;19.83;100.00
57606;BME280;43430;48.204;11.556;2023-07-16T03:32:45;96161.63;;;19.82;100.00
57606;BME280;43430;48.204;11.556;2023-07-16T03:35:11;96172.09;;;19.83;100.00
57606;BME280;43430;48.204;11.556;2023-07-16T03:37:36;96167.00;;;19.82;100.00
57606;BME280;43430;48.204;11.556;2023-07-16T03:40:22;96165.59;;;19.95;100.00
57606;BME280;43430;48.204;11.556;2023-07-16T03:42:47;96164.00;;;19.94;100.00
57606;BME280;43430;48.204;11.556;2023-07-16T03:45:13;96170.78;;;19.71;100.00
57606;BME280;43430;48.204;11.556;2023-07-16T03:47:39;96167.81;;;19.82;100.00
57606;BME280;43430;48.204;11.556;2023-07-16T03:50:05;96156.03;;;19.83;100.00
57606;BME280;43430;48.204;11.556;2023-07-16T03:52:30;96153.91;;;19.80;100.00
57606;BME280;43430;48.204;11.556;2023-07-16T03:54:55;96145.38;;;19.73;100.00
57606;BME280;43430;48.204;11.556;2023-07-16T03:57:21;96143.69;;;19.87;100.00
57606;BME280;43430;48.204;11.556;2023-07-16T03:59:46;96150.31;;;19.95;100.00
57606;BME280;43430;48.204;11.556;2023-07-16T04:02:11;96138.88;;;19.89;100.00
57606;BME280;43430;48.204;11.556;2023-07-16T04:04:37;96136.25;;;19.79;100.00
57606;BME280;43430;48.204;11.556;2023-07-16T04:07:02;96129.56;;;19.77;100.00
57606;BME280;43430;48.204;11.556;2023-07-16T04:09:28;96127.97;;;19.76;100.00
57606;BME280;43430;48.204;11.556;2023-07-16T04:11:53;96135.78;;;19.62;100.00
57606;BME280;43430;48.204;11.556;2023-07-16T04:14:18;96137.72;;;19.46;100.00
57606;BME280;43430;48.204;11.556;2023-07-16T04:16:45;96157.03;;;19.28;100.00
57606;BME280;43430;48.204;11.556;2023-07-16T04:19:10;96167.50;;;19.14;100.00
57606;BME280;43430;48.204;11.556;2023-07-16T04:21:36;96185.41;;;19.13;100.00
57606;BME280;43430;48.204;11.556;2023-07-16T04:24:02;96196.59;;;19.26;100.00
57606;BME280;43430;48.204;11.556;2023-07-16T04:26:28;96202.47;;;19.38;100.00
57606;BME280;43430;48.204;11.556;2023-07-16T04:28:53;96217.44;;;19.39;100.00
57606;BME280;43430;48.204;11.556;2023-07-16T04:31:18;96223.88;;;19.28;100.00
57606;BME280;43430;48.204;11.556;2023-07-16T04:33:44;96236.47;;;19.07;100.00
57606;BME280;43430;48.204;11.556;2023-07-16T04:36:09;96246.66;;;18.89;100.00
57606;BME280;43430;48.204;11.556;2023-07-16T04:38:35;96253.84;;;18.84;100.00
57606;BME280;43430;48.204;11.556;2023-07-16T04:41:00;96263.44;;;18.69;100.00
57606;BME280;43430;48.204;11.556;2023-07-16T04:43:25;96282.63;;;18.61;100.00
57606;BME280;43430;48.204;11.556;2023-07-16T04:45:51;96280.78;;;18.52;100.00
57606;BME280;43430;48.204;11.556;2023-07-16T04:48:16;96294.13;;;18.52;100.00
57606;BME280;43430;48.204;11.556;2023-07-16T04:50:41;96298.94;;;18.65;100.00
57606;BME280;43430;48.204;11.556;2023-07-16T04:53:07;96290.66;;;18.66;100.00
57606;BME280;43430;48.204;11.556;2023-07-16T04:55:37;96300.03;;;18.69;100.00
57606;BME280;43430;48.204;11.556;2023-07-16T04:58:02;96296.06;;;18.77;100.00
57606;BME280;43430;48.204;11.556;2023-07-16T05:00:28;96293.09;;;18.78;100.00
57606;BME280;43430;48.204;11.556;2023-07-16T05:02:53;96298.44;;;18.78;100.00
57606;BME280;43430;48.204;11.556;2023-07-16T05:05:19;96301.13;;;18.83;100.00
57606;BME280;43430;48.204;11.556;2023-07-16T05:07:44;96303.28;;;18.86;100.00
57606;BME280;43430;48.204;11.556;2023-07-16T05:10:09;96313.72;;;18.93;100.00
57606;BME280;43430;48.204;11.556;2023-07-16T05:12:35;96326.53;;;18.96;100.00
57606;BME280;43430;48.204;11.556;2023-07-16T05:15:00;96325.22;;;19.04;100.00
57606;BME280;43430;48.204;11.556;2023-07-16T05:17:26;96329.50;;;19.10;100.00
57606;BME280;43430;48.204;11.556;2023-07-16T05:19:51;96342.84;;;19.15;100.00
57606;BME280;43430;48.204;11.556;2023-07-16T05:22:17;96347.91;;;19.27;100.00
57606;BME280;43430;48.204;11.556;2023-07-16T05:24:42;96346.59;;;19.29;100.00
57606;BME280;43430;48.204;11.556;2023-07-16T05:27:07;96346.88;;;19.28;100.00
57606;BME280;43430;48.204;11.556;2023-07-16T05:29:33;96338.84;;;19.28;100.00
57606;BME280;43430;48.204;11.556;2023-07-16T05:31:58;96338.56;;;19.29;100.00
57606;BME280;43430;48.204;11.556;2023-07-16T05:34:23;96344.47;;;19.31;100.00
57606;BME280;43430;48.204;11.556;2023-07-16T05:36:49;96348.72;;;19.32;100.00
57606;BME280;43430;48.204;11.556;2023-07-16T05:39:15;96350.06;;;19.35;100.00
57606;BME280;43430;48.204;11.556;2023-07-16T05:41:40;96351.41;;;19.42;100.00
57606;BME280;43430;48.204;11.556;2023-07-16T05:44:06;96354.59;;;19.55;100.00
57606;BME280;43430;48.204;11.556;2023-07-16T05:46:33;96357.00;;;19.61;100.00
57606;BME280;43430;48.204;11.556;2023-07-16T05:48:58;96360.47;;;19.62;100.00
57606;BME280;43430;48.204;11.556;2023-07-16T05:51:24;96360.50;;;19.31;100.00
57606;BME280;43430;48.204;11.556;2023-07-16T05:53:49;96373.31;;;19.19;100.00
57606;BME280;43430;48.204;11.556;2023-07-16T05:56:14;96377.59;;;19.20;100.00
57606;BME280;43430;48.204;11.556;2023-07-16T05:58:41;96381.63;;;19.17;100.00
57606;BME280;43430;48.204;11.556;2023-07-16T06:01:06;96385.63;;;19.10;100.00
57606;BME280;43430;48.204;11.556;2023-07-16T06:03:32;96393.06;;;18.97;100.00
57606;BME280;43430;48.204;11.556;2023-07-16T06:05:57;96387.19;;;19.01;100.00
57606;BME280;43430;48.204;11.556;2023-07-16T06:08:22;96401.63;;;19.05;100.00
57606;BME280;43430;48.204;11.556;2023-07-16T06:10:50;96389.34;;;19.09;100.00
57606;BME280;43430;48.204;11.556;2023-07-16T06:13:15;96388.81;;;19.07;100.00
57606;BME280;43430;48.204;11.556;2023-07-16T06:15:41;96383.75;;;19.15;100.00
57606;BME280;43430;48.204;11.556;2023-07-16T06:18:07;96392.03;;;19.29;100.00
57606;BME280;43430;48.204;11.556;2023-07-16T06:20:32;96408.63;;;19.21;100.00
57606;BME280;43430;48.204;11.556;2023-07-16T06:22:57;96405.94;;;19.26;100.00
57606;BME280;43430;48.204;11.556;2023-07-16T06:25:23;96408.34;;;19.23;100.00
57606;BME280;43430;48.204;11.556;2023-07-16T06:27:48;96400.59;;;19.47;100.00
57606;BME280;43430;48.204;11.556;2023-07-16T06:30:14;96398.50;;;19.69;100.00
57606;BME280;43430;48.204;11.556;2023-07-16T06:32:39;96396.06;;;19.93;100.00
57606;BME280;43430;48.204;11.556;2023-07-16T06:35:04;96395.75;;;20.10;100.00
57606;BME280;43430;48.204;11.556;2023-07-16T06:37:30;96398.38;;;20.30;100.00
57606;BME280;43430;48.204;11.556;2023-07-16T06:39:56;96390.00;;;20.52;100.00
57606;BME280;43430;48.204;11.556;2023-07-16T06:42:21;96375.22;;;20.60;100.00
57606;BME280;43430;48.204;11.556;2023-07-16T06:44:46;96366.13;;;20.56;100.00
57606;BME280;43430;48.204;11.556;2023-07-16T06:47:12;96373.09;;;20.62;100.00
57606;BME280;43430;48.204;11.556;2023-07-16T06:49:37;96355.72;;;20.44;100.00
57606;BME280;43430;48.204;11.556;2023-07-16T06:52:03;96353.84;;;20.45;100.00
57606;BME280;43430;48.204;11.556;2023-07-16T06:54:28;96345.78;;;20.55;100.00
57606;BME280;43430;48.204;11.556;2023-07-16T06:56:54;96347.75;;;20.83;100.00
57606;BME280;43430;48.204;11.556;2023-07-16T06:59:19;96349.09;;;20.81;100.00
57606;BME280;43430;48.204;11.556;2023-07-16T07:01:44;96334.59;;;20.92;100.00
57606;BME280;43430;48.204;11.556;2023-07-16T07:04:10;96333.19;;;21.00;100.00
57606;BME280;43430;48.204;11.556;2023-07-16T07:06:35;96339.69;;;20.89;100.00
57606;BME280;43430;48.204;11.556;2023-07-16T07:09:02;96333.38;;;21.08;100.00
57606;BME280;43430;48.204;11.556;2023-07-16T07:11:27;96334.38;;;21.18;100.00
57606;BME280;43430;48.204;11.556;2023-07-16T07:13:53;96338.34;;;21.25;100.00
57606;BME280;43430;48.204;11.556;2023-07-16T07:16:18;96326.03;;;21.24;100.00
57606;BME280;43430;48.204;11.556;2023-07-16T07:18:44;96304.66;;;21.14;100.00
57606;BME280;43430;48.204;11.556;2023-07-16T07:21:10;96289.50;;;20.99;100.00
57606;BME280;43430;48.204;11.556;2023-07-16T07:23:35;96281.34;;;20.75;100.00
57606;BME280;43430;48.204;11.556;2023-07-16T07:26:00;96291.13;;;20.51;100.00
57606;BME280;43430;48.204;11.556;2023-07-16T07:28:26;96295.72;;;20.40;100.00
57606;BME280;43430;48.204;11.556;2023-07-16T07:30:52;96298.16;;;20.42;100.00
57606;BME280;43430;48.204;11.556;2023-07-16T07:33:17;96292.25;;;20.45;100.00
57606;BME280;43430;48.204;11.556;2023-07-16T07:35:42;96299.72;;;20.53;100.00
57606;BME280;43430;48.204;11.556;2023-07-16T07:38:08;96298.75;;;20.23;100.00
57606;BME280;43430;48.204;11.556;2023-07-16T07:40:33;96298.19;;;20.31;100.00
57606;BME280;43430;48.204;11.556;2023-07-16T07:42:59;96299.25;;;20.35;100.00
57606;BME280;43430;48.204;11.556;2023-07-16T07:45:25;96296.56;;;20.35;100.00
57606;BME280;43430;48.204;11.556;2023-07-16T07:47:51;96294.91;;;20.45;100.00
57606;BME280;43430;48.204;11.556;2023-07-16T07:50:16;96283.16;;;20.41;100.00
57606;BME280;43430;48.204;11.556;2023-07-16T07:52:42;96290.34;;;20.50;100.00
57606;BME280;43430;48.204;11.556;2023-07-16T07:55:07;96278.22;;;20.63;100.00
57606;BME280;43430;48.204;11.556;2023-07-16T07:57:33;96281.38;;;20.70;100.00
57606;BME280;43430;48.204;11.556;2023-07-16T07:59:58;96279.19;;;20.77;100.00
57606;BME280;43430;48.204;11.556;2023-07-16T08:02:25;96278.78;;;20.94;100.00
57606;BME280;43430;48.204;11.556;2023-07-16T08:04:54;96271.59;;;20.90;100.00
57606;BME280;43430;48.204;11.556;2023-07-16T08:07:19;96274.06;;;20.81;100.00
57606;BME280;43430;48.204;11.556;2023-07-16T08:09:46;96269.16;;;20.54;100.00
57606;BME280;43430;48.204;11.556;2023-07-16T08:12:12;96271.03;;;20.53;100.00
57606;BME280;43430;48.204;11.556;2023-07-16T08:14:37;96253.09;;;20.49;100.00
57606;BME280;43430;48.204;11.556;2023-07-16T08:17:03;96253.34;;;20.92;100.00
57606;BME280;43430;48.204;11.556;2023-07-16T08:19:34;96235.78;;;21.39;100.00
57606;BME280;43430;48.204;11.556;2023-07-16T08:21:59;96230.72;;;21.61;100.00
57606;BME280;43430;48.204;11.556;2023-07-16T08:24:25;96220.16;;;21.70;100.00
57606;BME280;43430;48.204;11.556;2023-07-16T08:26:51;96215.13;;;21.63;100.00
57606;BME280;43430;48.204;11.556;2023-07-16T08:29:16;96218.13;;;21.62;100.00
57606;BME280;43430;48.204;11.556;2023-07-16T08:31:42;96222.91;;;21.65;100.00
57606;BME280;43430;48.204;11.556;2023-07-16T08:34:07;96218.22;;;21.75;100.00
57606;BME280;43430;48.204;11.556;2023-07-16T08:36:33;96198.16;;;22.11;100.00
57606;BME280;43430;48.204;11.556;2023-07-16T08:38:58;96182.53;;;22.37;100.00
57606;BME280;43430;48.204;11.556;2023-07-16T08:41:24;96179.47;;;22.24;100.00
57606;BME280;43430;48.204;11.556;2023-07-16T08:43:50;96185.75;;;21.96;100.00
57606;BME280;43430;48.204;11.556;2023-07-16T08:46:16;96178.38;;;22.25;100.00
57606;BME280;43430;48.204;11.556;2023-07-16T08:48:42;96178.78;;;22.33;100.00
57606;BME280;43430;48.204;11.556;2023-07-16T08:51:09;96158.75;;;22.44;100.00
57606;BME280;43430;48.204;11.556;2023-07-16T08:53:35;96161.16;;;22.45;100.00
57606;BME280;43430;48.204;11.556;2023-07-16T08:56:01;96151.28;;;22.73;100.00
57606;BME280;43430;48.204;11.556;2023-07-16T08:58:31;96152.63;;;22.90;100.00
57606;BME280;43430;48.204;11.556;2023-07-16T09:00:56;96150.06;;;23.12;100.00
57606;BME280;43430;48.204;11.556;2023-07-16T09:03:23;96153.38;;;23.09;100.00
57606;BME280;43430;48.204;11.556;2023-07-16T09:05:48;96147.19;;;23.09;100.00
57606;BME280;43430;48.204;11.556;2023-07-16T09:10:43;96136.88;;;23.43;100.00
57606;BME280;43430;48.204;11.556;2023-07-16T09:13:09;96133.47;;;23.38;100.00
57606;BME280;43430;48.204;11.556;2023-07-16T09:15:35;96132.47;;;23.61;100.00
57606;BME280;43430;48.204;11.556;2023-07-16T09:18:01;96124.84;;;23.63;100.00
57606;BME280;43430;48.204;11.556;2023-07-16T09:20:27;96123.78;;;23.78;100.00
57606;BME280;43430;48.204;11.556;2023-07-16T09:22:54;96125.94;;;23.90;100.00
57606;BME280;43430;48.204;11.556;2023-07-16T09:25:28;96123.25;;;23.90;100.00
57606;BME280;43430;48.204;11.556;2023-07-16T09:27:54;96122.06;;;23.82;100.00
57606;BME280;43430;48.204;11.556;2023-07-16T09:30:22;96118.84;;;23.94;100.00
57606;BME280;43430;48.204;11.556;2023-07-16T09:32:48;96118.00;;;24.07;100.00
57606;BME280;43430;48.204;11.556;2023-07-16T09:35:15;96125.94;;;23.90;100.00
57606;BME280;43430;48.204;11.556;2023-07-16T09:37:42;96109.69;;;24.17;100.00
57606;BME280;43430;48.204;11.556;2023-07-16T09:40:09;96114.28;;;24.39;100.00
57606;BME280;43430;48.204;11.556;2023-07-16T09:42:40;96098.56;;;24.33;100.00
57606;BME280;43430;48.204;11.556;2023-07-16T09:45:07;96099.22;;;24.16;100.00
57606;BME280;43430;48.204;11.556;2023-07-16T09:47:34;96097.84;;;23.82;100.00
57606;BME280;43430;48.204;11.556;2023-07-16T09:50:00;96097.06;;;24.04;100.00
57606;BME280;43430;48.204;11.556;2023-07-16T09:52:27;96084.88;;;24.29;100.00
57606;BME280;43430;48.204;11.556;2023-07-16T09:54:55;96087.97;;;23.64;100.00
57606;BME280;43430;48.204;11.556;2023-07-16T09:57:22;96084.09;;;24.06;100.00
57606;BME280;43430;48.204;11.556;2023-07-16T09:59:49;96087.16;;;24.36;100.00
57606;BME280;43430;48.204;11.556;2023-07-16T10:02:17;96082.03;;;24.48;100.00
57606;BME280;43430;48.204;11.556;2023-07-16T10:04:43;96072.47;;;24.42;100.00
57606;BME280;43430;48.204;11.556;2023-07-16T10:07:20;96083.72;;;23.99;100.00
57606;BME280;43430;48.204;11.556;2023-07-16T10:09:54;96098.38;;;23.29;100.00
57606;BME280;43430;48.204;11.556;2023-07-16T10:12:22;96094.97;;;23.51;100.00
57606;BME280;43430;48.204;11.556;2023-07-16T10:14:50;96090.28;;;23.71;100.00
57606;BME280;43430;48.204;11.556;2023-07-16T10:17:21;96089.25;;;23.66;100.00
57606;BME280;43430;48.204;11.556;2023-07-16T10:20:01;96083.22;;;23.75;100.00
57606;BME280;43430;48.204;11.556;2023-07-16T10:24:57;96094.41;;;23.27;100.00
57606;BME280;43430;48.204;11.556;2023-07-16T10:27:33;96082.81;;;23.40;100.00
57606;BME280;43430;48.204;11.556;2023-07-16T10:30:00;96081.50;;;24.01;100.00
57606;BME280;43430;48.204;11.556;2023-07-16T10:32:29;96059.59;;;24.39;100.00
57606;BME280;43430;48.204;11.556;2023-07-16T10:34:55;96064.75;;;24.49;100.00
57606;BME280;43430;48.204;11.556;2023-07-16T10:37:21;96062.84;;;24.81;100.00
57606;BME280;43430;48.204;11.556;2023-07-16T10:39:57;96058.63;;;24.89;100.00
57606;BME280;43430;48.204;11.556;2023-07-16T10:42:23;96061.69;;;24.65;100.00
57606;BME280;43430;48.204;11.556;2023-07-16T10:44:54;96063.97;;;24.80;100.00
57606;BME280;43430;48.204;11.556;2023-07-16T10:49:48;96058.72;;;25.15;100.00
57606;BME280;43430;48.204;11.556;2023-07-16T10:52:13;96048.31;;;25.39;100.00
57606;BME280;43430;48.204;11.556;2023-07-16T10:54:42;96050.91;;;25.62;100.00
57606;BME280;43430;48.204;11.556;2023-07-16T10:57:08;96044.41;;;25.97;100.00
57606;BME280;43430;48.204;11.556;2023-07-16T10:59:33;96044.84;;;25.73;100.00
57606;BME280;43430;48.204;11.556;2023-07-16T11:01:59;96048.31;;;25.39;100.00
57606;BME280;43430;48.204;11.556;2023-07-16T11:04:24;96056.53;;;25.17;100.00
57606;BME280;43430;48.204;11.556;2023-07-16T11:06:50;96057.25;;;24.69;100.00
57606;BME280;43430;48.204;11.556;2023-07-16T11:09:16;96050.44;;;24.40;100.00
57606;BME280;43430;48.204;11.556;2023-07-16T11:11:41;96054.81;;;24.36;100.00
57606;BME280;43430;48.204;11.556;2023-07-16T11:14:07;96058.75;;;24.52;100.00
57606;BME280;43430;48.204;11.556;2023-07-16T11:16:34;96060.03;;;24.95;100.00
57606;BME280;43430;48.204;11.556;2023-07-16T11:19:04;96054.44;;;25.14;100.00
57606;BME280;43430;48.204;11.556;2023-07-16T11:21:33;96047.50;;;24.50;100.00
57606;BME280;43430;48.204;11.556;2023-07-16T11:24:28;96051.63;;;24.34;100.00
57606;BME280;43430;48.204;11.556;2023-07-16T11:27:01;96040.88;;;24.34;100.00
57606;BME280;43430;48.204;11.556;2023-07-16T11:29:34;96030.22;;;24.51;100.00
57606;BME280;43430;48.204;11.556;2023-07-16T11:32:00;96030.22;;;24.60;100.00
57606;BME280;43430;48.204;11.556;2023-07-16T11:34:25;96034.00;;;24.81;100.00
57606;BME280;43430;48.204;11.556;2023-07-16T11:36:51;96036.53;;;24.78;100.00
57606;BME280;43430;48.204;11.556;2023-07-16T11:39:16;96036.69;;;24.81;100.00
57606;BME280;43430;48.204;11.556;2023-07-16T11:41:41;96030.84;;;24.88;100.00
57606;BME280;43430;48.204;11.556;2023-07-16T11:44:07;96019.06;;;25.32;100.00
57606;BME280;43430;48.204;11.556;2023-07-16T11:46:34;96029.28;;;25.44;100.00
57606;BME280;43430;48.204;11.556;2023-07-16T11:49:02;96028.16;;;25.37;100.00
57606;BME280;43430;48.204;11.556;2023-07-16T11:51:27;96026.19;;;25.11;100.00
57606;BME280;43430;48.204;11.556;2023-07-16T11:53:56;96019.97;;;25.10;100.00
57606;BME280;43430;48.204;11.556;2023-07-16T11:56:22;96007.25;;;25.02;100.00
57606;BME280;43430;48.204;11.556;2023-07-16T11:58:49;96011.59;;;25.12;100.00
57606;BME280;43430;48.204;11.556;2023-07-16T12:01:14;96012.03;;;25.05;100.00
57606;BME280;43430;48.204;11.556;2023-07-16T12:03:40;96010.81;;;25.29;100.00
57606;BME280;43430;48.204;11.556;2023-07-16T12:06:05;96014.03;;;25.48;100.00
57606;BME280;43430;48.204;11.556;2023-07-16T12:08:31;96012.59;;;25.33;100.00
57606;BME280;43430;48.204;11.556;2023-07-16T12:10:57;96019.56;;;25.26;100.00
57606;BME280;43430;48.204;11.556;2023-07-16T12:13:23;96005.94;;;25.57;100.00
57606;BME280;43430;48.204;11.556;2023-07-16T12:15:48;96001.66;;;25.47;100.00
57606;BME280;43430;48.204;11.556;2023-07-16T12:18:13;96006.88;;;25.44;100.00
57606;BME280;43430;48.204;11.556;2023-07-16T12:20:39;96006.56;;;25.45;100.00
57606;BME280;43430;48.204;11.556;2023-07-16T12:23:07;96005.25;;;25.17;100.00
57606;BME280;43430;48.204;11.556;2023-07-16T12:25:32;95999.88;;;25.34;100.00
57606;BME280;43430;48.204;11.556;2023-07-16T12:27:58;95999.09;;;25.51;100.00
57606;BME280;43430;48.204;11.556;2023-07-16T12:30:24;96005.94;;;24.91;100.00
57606;BME280;43430;48.204;11.556;2023-07-16T12:32:50;96017.56;;;24.60;100.00
57606;BME280;43430;48.204;11.556;2023-07-16T12:35:15;96009.06;;;24.76;100.00
57606;BME280;43430;48.204;11.556;2023-07-16T12:37:41;96007.28;;;25.11;100.00
57606;BME280;43430;48.204;11.556;2023-07-16T12:40:06;96008.31;;;25.41;100.00
57606;BME280;43430;48.204;11.556;2023-07-16T12:42:32;96011.81;;;25.59;100.00
57606;BME280;43430;48.204;11.556;2023-07-16T12:44:58;96010.06;;;25.37;100.00
57606;BME280;43430;48.204;11.556;2023-07-16T12:47:24;96007.16;;;25.16;100.00
57606;BME280;43430;48.204;11.556;2023-07-16T12:49:49;96014.94;;;25.18;100.00
57606;BME280;43430;48.204;11.556;2023-07-16T12:52:14;96008.59;;;25.31;100.00